.
WxDataArchive / Data Records for 2008-01-24
2008-01-23 January 2008 2008-01-25

Data Records for Thursday, 24 January 2008

Time	Temp	Chill	HIndex	Humid	Dewpt	 Wind 	HiWind	WindDir	Rain 	Barom 
-----	----	-----	------	-----	-----	------	------	-------	-----	----- 
00:00	18.0	18.0	18.0	77	12.0	0	0	---	0.00	30.008 
00:05	18.0	18.0	18.0	78	12.3	0	0	---	0.00	30.008 
00:10	18.0	18.0	18.0	78	12.3	0	0	---	0.00	30.008 
00:15	18.0	18.0	18.0	79	12.6	0	0	---	0.00	30.008 
00:20	18.0	18.0	18.0	80	12.9	0	1	225	0.00	30.008 
00:25	17.8	17.8	17.8	80	12.7	0	0	---	0.00	30.005 
00:30	17.7	17.7	17.7	81	12.9	0	0	---	0.00	30.001 
00:35	17.7	17.7	17.7	81	12.9	0	0	---	0.00	30.003 
00:40	17.7	17.7	17.7	81	12.9	0	0	---	0.00	30.004 
00:45	17.7	17.7	17.7	81	12.9	0	0	---	0.00	30.002 
00:50	17.7	17.7	17.7	82	13.2	0	0	---	0.00	30.005 
00:55	17.7	17.7	17.7	82	13.2	0	0	---	0.00	30.004 
01:00	17.7	17.7	17.7	82	13.2	0	0	---	0.00	30.004 
01:05	17.7	17.7	17.7	82	13.2	0	0	---	0.00	30.005 
01:10	17.7	17.7	17.7	83	13.4	0	0	---	0.00	30.005 
01:15	17.7	17.7	17.7	83	13.4	0	0	---	0.00	30.005 
01:20	17.5	17.5	17.5	83	13.2	0	0	---	0.00	30.003 
01:25	17.5	17.5	17.5	83	13.2	0	0	---	0.00	30.002 
01:30	17.5	17.5	17.5	83	13.2	0	0	---	0.00	29.997 
01:35	17.5	17.5	17.5	83	13.2	0	0	---	0.00	29.994 
01:40	17.5	17.5	17.5	83	13.2	0	0	---	0.00	29.992 
01:45	17.5	17.5	17.5	84	13.5	0	0	---	0.00	29.991 
01:50	17.5	17.5	17.5	84	13.5	0	1	225	0.00	29.991 
01:55	17.5	17.5	17.5	83	13.2	0	1	225	0.00	29.991 
02:00	17.5	17.5	17.5	83	13.2	0	0	---	0.00	29.992 
02:05	17.5	17.5	17.5	83	13.2	0	1	225	0.00	29.993 
02:10	17.3	17.3	17.3	83	13.0	0	1	225	0.00	29.991 
02:15	17.3	17.3	17.3	83	13.0	0	0	---	0.00	29.991 
02:20	17.3	17.3	17.3	82	12.8	0	0	---	0.00	29.991 
02:25	17.3	17.3	17.3	82	12.8	0	1	225	0.00	29.992 
02:30	17.3	17.3	17.3	82	12.8	0	1	225	0.00	29.992 
02:35	17.3	17.3	17.3	82	12.8	0	1	225	0.00	29.993 
02:40	17.3	17.3	17.3	82	12.8	0	1	225	0.00	29.994 
02:45	17.3	17.3	17.3	82	12.8	0	1	225	0.00	29.995 
02:50	17.2	17.2	17.2	81	12.4	1	3	338	0.00	29.997 
02:55	17.2	17.2	17.2	81	12.4	0	3	270	0.00	29.999 
03:00	17.2	17.2	17.2	81	12.4	0	3	270	0.00	29.999 
03:05	17.2	17.2	17.2	81	12.4	0	2	270	0.00	30.002 
03:10	17.2	17.2	17.2	81	12.4	1	3	338	0.00	29.999 
03:15	17.2	17.2	17.2	81	12.4	0	1	338	0.00	30.002 
03:20	17.0	17.0	17.0	81	12.2	0	3	248	0.00	30.003 
03:25	17.0	17.0	17.0	81	12.2	0	3	270	0.00	30.004 
03:30	16.9	16.9	16.9	81	12.1	0	1	270	0.00	30.006 
03:35	16.9	16.9	16.9	82	12.4	0	2	248	0.00	30.006 
03:40	16.7	16.7	16.7	82	12.2	0	1	248	0.00	30.007 
03:45	16.7	16.7	16.7	81	11.9	0	2	248	0.00	30.006 
03:50	16.5	16.5	16.5	81	11.7	0	1	248	0.00	30.007 
03:55	16.4	16.4	16.4	82	11.9	0	1	248	0.00	30.007 
04:00	16.4	16.4	16.4	82	11.9	0	1	248	0.00	30.008 
04:05	16.2	16.2	16.2	82	11.7	0	2	248	0.00	30.011 
04:10	16.1	16.1	16.1	82	11.6	0	2	338	0.00	30.010 
04:15	15.9	15.9	15.9	82	11.4	0	2	315	0.00	30.010 
04:20	15.7	15.7	15.7	82	11.2	0	1	248	0.00	30.011 
04:25	15.6	15.6	15.6	82	11.1	0	1	248	0.00	30.014 
04:30	15.4	15.4	15.4	82	10.9	0	1	270	0.00	30.019 
04:35	15.2	15.2	15.2	82	10.7	0	1	270	0.00	30.021 
04:40	15.2	15.2	15.2	83	11.0	0	2	270	0.00	30.023 
04:45	15.2	15.2	15.2	83	11.0	0	3	248	0.00	30.023 
04:50	15.2	15.2	15.2	83	11.0	0	1	248	0.00	30.024 
04:55	15.4	15.4	15.4	83	11.2	0	3	248	0.00	30.026 
05:00	15.4	15.4	15.4	83	11.2	1	3	270	0.00	30.028 
05:05	15.4	15.4	15.4	83	11.2	1	3	248	0.00	30.031 
05:10	15.4	15.4	15.4	82	10.9	0	2	248	0.00	30.034 
05:15	15.4	15.4	15.4	82	10.9	1	3	270	0.00	30.038 
05:20	15.4	15.4	15.4	82	10.9	1	3	270	0.00	30.040 
05:25	15.4	15.4	15.4	82	10.9	1	4	270	0.00	30.041 
05:30	15.4	15.4	15.4	82	10.9	1	3	270	0.00	30.042 
05:35	15.4	15.4	15.4	82	10.9	1	2	315	0.00	30.044 
05:40	15.4	15.4	15.4	82	10.9	1	2	270	0.00	30.045 
05:45	15.2	15.2	15.2	82	10.7	1	3	270	0.00	30.047 
05:50	15.2	15.2	15.2	82	10.7	1	3	338	0.00	30.051 
05:55	15.2	15.2	15.2	82	10.7	1	3	292	0.00	30.054 
06:00	15.4	15.4	15.4	82	10.9	0	3	292	0.00	30.055 
06:05	15.2	15.2	15.2	81	10.4	1	2	292	0.00	30.058 
06:10	15.2	15.2	15.2	81	10.4	1	4	315	0.00	30.060 
06:15	15.2	15.2	15.2	81	10.4	1	3	315	0.00	30.064 
06:20	15.2	15.2	15.2	81	10.4	1	2	270	0.00	30.068 
06:25	15.2	15.2	15.2	81	10.4	1	3	270	0.00	30.072 
06:30	15.2	15.2	15.2	81	10.4	1	3	292	0.00	30.074 
06:35	15.1	15.1	15.1	81	10.3	1	3	270	0.00	30.074 
06:40	15.1	15.1	15.1	81	10.3	1	3	270	0.00	30.076 
06:45	15.1	15.1	15.1	81	10.3	1	3	270	0.00	30.076 
06:50	14.9	14.9	14.9	81	10.1	1	2	248	0.00	30.077 
06:55	14.9	14.9	14.9	82	10.4	1	2	270	0.00	30.082 
07:00	14.9	14.9	14.9	82	10.4	0	3	270	0.00	30.086 
07:05	14.9	14.9	14.9	82	10.4	1	3	248	0.00	30.086 
07:10	14.8	14.8	14.8	82	10.3	0	2	292	0.00	30.089 
07:15	14.8	14.8	14.8	82	10.3	0	1	270	0.00	30.090 
07:20	14.8	14.8	14.8	82	10.3	1	2	270	0.00	30.092 
07:25	14.6	14.6	14.6	81	9.9	0	2	270	0.00	30.092 
07:30	14.6	14.6	14.6	81	9.9	1	2	248	0.00	30.095 
07:35	14.6	14.6	14.6	81	9.9	1	3	248	0.00	30.100 
07:40	14.4	14.4	14.4	81	9.7	1	2	270	0.00	30.103 
07:45	14.4	14.4	14.4	81	9.7	1	4	248	0.00	30.106 
07:50	14.4	14.4	14.4	81	9.7	1	3	248	0.00	30.107 
07:55	14.3	14.3	14.3	80	9.3	1	4	270	0.00	30.109 
08:00	14.3	14.3	14.3	80	9.3	0	2	248	0.00	30.117 
08:05	14.3	14.3	14.3	80	9.3	1	2	248	0.00	30.122 
08:10	14.3	14.3	14.3	80	9.3	1	3	270	0.00	30.123 
08:15	14.3	14.3	14.3	80	9.3	1	3	270	0.00	30.125 
08:20	14.3	14.3	14.3	80	9.3	0	2	248	0.00	30.126 
08:25	14.3	14.3	14.3	80	9.3	0	2	248	0.00	30.127 
08:30	14.3	14.3	14.3	80	9.3	0	4	270	0.00	30.131 
08:35	14.3	14.3	14.3	80	9.3	1	3	270	0.00	30.136 
08:40	14.3	14.3	14.3	81	9.6	0	2	248	0.00	30.139 
08:45	14.3	14.3	14.3	81	9.6	0	2	248	0.00	30.140 
08:50	14.4	14.4	14.4	81	9.7	0	1	248	0.00	30.143 
08:55	14.4	14.4	14.4	81	9.7	0	2	248	0.00	30.148 
09:00	14.4	14.4	14.4	81	9.7	1	4	292	0.00	30.152 
09:05	14.4	14.4	14.4	81	9.7	0	1	292	0.00	30.157 
09:10	14.6	14.6	14.6	81	9.9	1	3	248	0.00	30.157 
09:15	14.6	14.6	14.6	82	10.1	1	3	248	0.00	30.159 
09:20	14.8	14.8	14.8	82	10.3	0	3	248	0.00	30.165 
09:25	14.8	14.8	14.8	82	10.3	1	2	248	0.00	30.169 
09:30	14.9	14.9	14.9	81	10.1	1	2	248	0.00	30.170 
09:35	14.9	14.9	14.9	81	10.1	1	2	248	0.00	30.172 
09:40	15.1	15.1	15.1	81	10.3	0	2	248	0.00	30.176 
09:45	15.2	15.2	15.2	81	10.4	1	2	248	0.00	30.179 
09:50	15.4	15.4	15.4	80	10.4	1	4	248	0.00	30.184 
09:55	15.4	15.4	15.4	80	10.4	1	3	248	0.00	30.186 
10:00	15.4	15.4	15.4	79	10.1	1	5	270	0.00	30.188 
10:05	15.4	15.4	15.4	79	10.1	1	3	248	0.00	30.193 
10:10	15.7	15.7	15.7	79	10.4	1	3	248	0.00	30.195 
10:15	15.6	15.6	15.6	78	10.0	1	4	248	0.00	30.198 
10:20	15.6	15.6	15.6	77	9.7	1	4	270	0.00	30.199 
10:25	15.9	15.9	15.9	77	10.0	1	4	270	0.00	30.202 
10:30	16.1	16.1	16.1	76	9.9	1	3	292	0.00	30.204 
10:35	16.1	16.1	16.1	75	9.6	1	5	270	0.00	30.210 
10:40	15.9	15.9	15.9	75	9.4	1	4	270	0.00	30.214 
10:45	15.7	15.7	15.7	73	8.6	2	4	270	0.00	30.216 
10:50	15.4	15.4	15.4	73	8.3	1	3	270	0.00	30.219 
10:55	15.7	15.7	15.7	73	8.6	2	5	270	0.00	30.225 
11:00	15.9	15.9	15.9	72	8.5	3	6	270	0.00	30.231 
11:05	15.9	15.9	15.9	70	7.9	3	7	292	0.00	30.231 
11:10	15.6	15.6	15.6	70	7.6	3	7	270	0.00	30.234 
11:15	15.4	15.4	15.4	70	7.4	3	6	270	0.00	30.240 
11:20	14.9	14.9	14.9	70	6.9	3	6	270	0.00	30.241 
11:25	14.6	14.6	14.6	70	6.6	2	6	270	0.00	30.243 
11:30	14.8	14.8	14.8	71	7.1	1	4	270	0.00	30.242 
11:35	15.1	15.1	15.1	72	7.7	1	5	270	0.00	30.246 
11:40	15.4	15.4	15.4	71	7.7	2	4	248	0.00	30.245 
11:45	15.4	15.4	15.4	70	7.4	2	7	270	0.00	30.245 
11:50	15.6	15.6	15.6	70	7.6	2	5	270	0.00	30.246 
11:55	15.4	15.4	15.4	69	7.1	2	5	270	0.00	30.247 
12:00	15.4	15.4	15.4	69	7.1	2	4	270	0.00	30.248 
12:05	15.2	15.2	15.2	68	6.6	2	5	270	0.00	30.250 
12:10	15.2	15.2	15.2	68	6.6	2	4	270	0.00	30.250 
12:15	15.2	15.2	15.2	67	6.2	3	5	270	0.00	30.249 
12:20	15.2	15.2	15.2	67	6.2	3	5	270	0.00	30.250 
12:25	15.2	15.2	15.2	66	5.9	3	5	270	0.00	30.251 
12:30	15.2	15.2	15.2	65	5.6	3	6	270	0.00	30.252 
12:35	15.4	15.4	15.4	66	6.1	2	4	270	0.00	30.251 
12:40	15.9	15.9	15.9	65	6.2	2	4	270	0.00	30.251 
12:45	15.7	15.7	15.7	65	6.1	2	3	270	0.00	30.253 
12:50	15.6	15.6	15.6	64	5.6	2	9	292	0.00	30.259 
12:55	15.4	15.4	15.4	65	5.8	2	6	270	0.00	30.263 
13:00	15.6	15.6	15.6	65	6.0	2	9	270	0.00	30.261 
13:05	15.6	15.6	15.6	64	5.6	2	11	270	0.00	30.262 
13:10	15.4	15.4	15.4	65	5.8	2	6	270	0.00	30.265 
13:15	15.2	15.2	15.2	64	5.2	2	5	270	0.00	30.265 
13:20	15.1	15.1	15.1	64	5.1	2	5	270	0.00	30.266 
13:25	14.9	14.9	14.9	64	5.0	2	5	270	0.00	30.267 
13:30	15.1	15.1	15.1	64	5.1	2	6	270	0.00	30.267 
13:35	15.2	15.2	15.2	63	4.9	2	5	270	0.00	30.271 
13:40	15.4	15.4	15.4	63	5.1	2	4	270	0.00	30.276 
13:45	15.6	15.6	15.6	63	5.3	2	5	270	0.00	30.277 
13:50	15.7	15.7	15.7	63	5.4	2	4	270	0.00	30.279 
13:55	15.6	15.6	15.6	63	5.3	2	6	270	0.00	30.280 
14:00	15.7	15.7	15.7	63	5.4	1	4	248	0.00	30.280 
14:05	15.9	15.9	15.9	62	5.2	2	4	270	0.00	30.282 
14:10	16.1	16.1	16.1	63	5.8	1	5	248	0.00	30.282 
14:15	16.2	16.2	16.2	62	5.5	2	6	270	0.00	30.288 
14:20	16.4	16.4	16.4	62	5.7	2	6	270	0.00	30.292 
14:25	16.4	16.4	16.4	62	5.7	2	5	270	0.00	30.292 
14:30	16.7	16.7	16.7	62	6.0	2	4	270	0.00	30.294 
14:35	16.7	16.7	16.7	62	6.0	1	3	270	0.00	30.295 
14:40	17.2	17.2	17.2	62	6.4	2	4	270	0.00	30.296 
14:45	17.2	17.2	17.2	61	6.1	2	4	270	0.00	30.297 
14:50	17.3	17.3	17.3	61	6.2	2	4	248	0.00	30.297 
14:55	17.5	17.5	17.5	60	6.0	1	4	270	0.00	30.300 
15:00	17.7	17.7	17.7	61	6.6	1	3	270	0.00	30.303 
15:05	17.7	17.7	17.7	60	6.2	1	3	315	0.00	30.302 
15:10	17.8	17.8	17.8	59	5.9	2	5	270	0.00	30.308 
15:15	17.7	17.7	17.7	59	5.8	2	4	270	0.00	30.311 
15:20	17.8	17.8	17.8	59	5.9	2	6	315	0.00	30.314 
15:25	18.0	18.0	18.0	59	6.1	2	4	270	0.00	30.316 
15:30	17.8	17.8	17.8	59	5.9	2	5	292	0.00	30.322 
15:35	18.1	18.1	18.1	60	6.6	1	4	248	0.00	30.325 
15:40	18.6	18.6	18.6	60	7.1	1	3	248	0.00	30.326 
15:45	18.6	18.6	18.6	59	6.7	2	5	270	0.00	30.330 
15:50	18.4	18.4	18.4	59	6.5	1	6	270	0.00	30.339 
15:55	18.4	18.4	18.4	58	6.1	3	7	270	0.00	30.342 
16:00	18.3	18.3	18.3	60	6.8	2	4	270	0.00	30.341 
16:05	18.1	18.1	18.1	59	6.2	2	5	248	0.00	30.344 
16:10	17.8	17.8	17.8	60	6.3	3	5	270	0.00	30.346 
16:15	17.8	17.8	17.8	60	6.3	3	7	270	0.00	30.347 
16:20	17.7	17.7	17.7	61	6.6	2	4	270	0.00	30.348 
16:25	17.7	17.7	17.7	62	6.9	1	5	292	0.00	30.349 
16:30	17.7	17.7	17.7	62	6.9	1	4	270	0.00	30.353 
16:35	17.3	17.3	17.3	63	6.9	2	5	270	0.00	30.352 
16:40	17.2	17.2	17.2	63	6.8	1	6	248	0.00	30.357 
16:45	17.0	17.0	17.0	64	7.0	1	4	248	0.00	30.359 
16:50	17.0	17.0	17.0	65	7.3	1	3	338	0.00	30.359 
16:55	17.0	17.0	17.0	65	7.3	1	3	248	0.00	30.360 
17:00	17.0	17.0	17.0	65	7.3	1	4	248	0.00	30.361 
17:05	17.0	17.0	17.0	65	7.3	1	4	248	0.00	30.365 
17:10	16.9	16.9	16.9	66	7.5	1	3	248	0.00	30.366 
17:15	16.9	16.9	16.9	66	7.5	1	3	270	0.00	30.368 
17:20	16.7	16.7	16.7	66	7.3	1	3	270	0.00	30.372 
17:25	16.5	16.5	16.5	67	7.5	0	2	270	0.00	30.374 
17:30	16.4	16.4	16.4	68	7.7	0	3	248	0.00	30.378 
17:35	16.2	16.2	16.2	68	7.5	1	3	248	0.00	30.378 
17:40	16.1	16.1	16.1	69	7.8	1	7	225	0.00	30.379 
17:45	15.9	15.9	15.9	69	7.6	0	3	225	0.00	30.380 
17:50	15.7	15.7	15.7	70	7.7	0	3	248	0.00	30.380 
17:55	15.4	15.4	15.4	71	7.7	0	3	225	0.00	30.382 
18:00	15.2	15.2	15.2	72	7.8	1	3	225	0.00	30.387 
18:05	15.1	15.1	15.1	72	7.7	0	3	248	0.00	30.390 
18:10	15.1	15.1	15.1	73	8.0	1	3	248	0.00	30.392 
18:15	14.9	14.9	14.9	74	8.1	0	2	248	0.00	30.393 
18:20	15.1	15.1	15.1	75	8.6	1	3	248	0.00	30.395 
18:25	15.2	15.2	15.2	75	8.7	1	3	248	0.00	30.401 
18:30	15.6	15.6	15.6	76	9.4	1	5	270	0.00	30.404 
18:35	15.7	15.7	15.7	76	9.5	1	6	248	0.00	30.405 
18:40	15.7	15.7	15.7	76	9.5	1	4	270	0.00	30.404 
18:45	15.7	15.7	15.7	75	9.2	2	3	248	0.00	30.407 
18:50	15.6	15.6	15.6	75	9.1	1	3	248	0.00	30.408 
18:55	15.4	15.4	15.4	75	8.9	1	4	248	0.00	30.409 
19:00	15.4	15.4	15.4	75	8.9	1	3	270	0.00	30.408 
19:05	15.6	15.6	15.6	75	9.1	1	5	270	0.00	30.410 
19:10	15.6	15.6	15.6	75	9.1	1	4	270	0.00	30.418 
19:15	15.4	15.4	15.4	74	8.6	1	6	248	0.00	30.425 
19:20	15.4	15.4	15.4	74	8.6	1	4	248	0.00	30.427 
19:25	15.2	15.2	15.2	74	8.4	1	3	270	0.00	30.428 
19:30	15.1	15.1	15.1	73	8.0	2	7	270	0.00	30.429 
19:35	14.9	14.9	14.9	73	7.8	2	7	248	0.00	30.429 
19:40	14.4	14.4	14.4	72	7.1	2	5	225	0.00	30.428 
19:45	14.1	14.1	14.1	72	6.8	1	5	248	0.00	30.429 
19:50	14.0	14.0	14.0	72	6.7	1	6	270	0.00	30.429 
19:55	13.6	13.6	13.6	72	6.3	1	5	270	0.00	30.430 
20:00	13.6	13.6	13.6	73	6.6	1	3	248	0.00	30.435 
20:05	13.3	13.3	13.3	72	6.0	2	6	248	0.00	30.441 
20:10	12.9	12.9	12.9	71	5.3	3	8	248	0.00	30.445 
20:15	12.6	12.6	12.6	72	5.3	2	6	248	0.00	30.446 
20:20	12.1	12.1	12.1	70	4.2	2	7	248	0.00	30.447 
20:25	11.4	11.4	11.4	70	3.5	2	9	248	0.00	30.449 
20:30	11.1	11.1	11.1	71	3.6	1	5	248	0.00	30.451 
20:35	10.7	10.7	10.7	70	2.9	2	9	248	0.00	30.453 
20:40	10.2	10.2	10.2	70	2.4	2	7	248	0.00	30.453 
20:45	10.0	10.0	10.0	70	2.2	1	3	248	0.00	30.450 
20:50	9.9	9.9	9.9	70	2.1	1	6	248	0.00	30.452 
20:55	9.7	9.7	9.7	70	1.9	1	3	248	0.00	30.453 
21:00	9.3	9.3	9.3	70	1.5	1	3	248	0.00	30.459 
21:05	9.2	9.2	9.2	69	1.1	1	3	248	0.00	30.461 
21:10	8.8	8.8	8.8	69	0.7	2	5	248	0.00	30.462 
21:15	8.6	8.6	8.6	69	0.5	1	3	248	0.00	30.463 
21:20	8.4	8.4	8.4	69	0.4	1	4	248	0.00	30.466 
21:25	8.1	8.1	8.1	69	0.1	1	3	225	0.00	30.470 
21:30	7.9	7.9	7.9	69	-0.1	1	4	248	0.00	30.470 
21:35	7.7	7.7	7.7	68	-0.6	1	5	248	0.00	30.473 
21:40	7.4	7.4	7.4	68	-0.9	1	5	248	0.00	30.475 
21:45	7.2	7.2	7.2	68	-1.1	1	4	248	0.00	30.480 
21:50	6.9	6.9	6.9	68	-1.4	2	4	248	0.00	30.482 
21:55	6.7	6.7	6.7	68	-1.6	1	7	248	0.00	30.482 
22:00	6.5	6.5	6.5	67	-2.1	1	4	248	0.00	30.483 
22:05	6.1	6.1	6.1	67	-2.5	1	4	248	0.00	30.485 
22:10	6.0	6.0	6.0	67	-2.6	0	3	248	0.00	30.486 
22:15	5.8	5.8	5.8	67	-2.8	1	4	248	0.00	30.484 
22:20	5.8	5.8	5.8	67	-2.8	0	3	248	0.00	30.486 
22:25	5.6	5.6	5.6	67	-2.9	2	5	248	0.00	30.488 
22:30	5.4	5.4	5.4	67	-3.1	1	3	248	0.00	30.486 
22:35	5.4	5.4	5.4	66	-3.5	1	4	248	0.00	30.486 
22:40	5.2	5.2	5.2	66	-3.6	1	4	248	0.00	30.484 
22:45	5.0	5.0	5.0	67	-3.5	1	4	248	0.00	30.483 
22:50	5.0	5.0	5.0	66	-3.8	1	4	248	0.00	30.485 
22:55	4.7	4.7	4.7	66	-4.1	1	3	248	0.00	30.485 
23:00	4.7	4.7	4.7	66	-4.1	2	4	248	0.00	30.484 
23:05	4.7	4.7	4.7	66	-4.1	1	4	248	0.00	30.484 
23:10	4.5	4.5	4.5	66	-4.3	1	5	248	0.00	30.488 
23:15	4.5	4.5	4.5	66	-4.3	0	3	248	0.00	30.492 
23:20	4.3	4.3	4.3	66	-4.5	1	3	248	0.00	30.498 
23:25	4.3	4.3	4.3	66	-4.5	1	4	248	0.00	30.500 
23:30	4.3	4.3	4.3	66	-4.5	1	5	248	0.00	30.502 
23:35	4.1	4.1	4.1	65	-5.0	2	6	248	0.00	30.501 
23:40	4.1	4.1	4.1	65	-5.0	0	2	248	0.00	30.501 
23:45	3.9	3.9	3.9	65	-5.2	1	3	248	0.00	30.504 
23:50	3.7	3.7	3.7	65	-5.4	1	4	248	0.00	30.506 
23:55	3.7	3.7	3.7	65	-5.4	1	4	248	0.00	30.509 

CoCoRaHS
IN-AL-39
A2 Web Hosting
Creative Commons License
GoDaddy
Look for:

loaded 2017-10-16 18:29:34 • last modified 2010-11-18 10:43:29
Privacy PolicyDisclaimer
• wx.awcolley.com is powered by PmWiki v.2002016 •
• all content (unless otherwise noted) © 2017 A W Colley